sensor_id;sensor_type;location;lat;lon;timestamp;P1;durP1;ratioP1;P2;durP2;ratioP2
76393;SDS011;65216;51.090;-115.352;2023-07-24T00:02:02;13.40;;;2.20;;
76393;SDS011;65216;51.090;-115.352;2023-07-24T00:04:33;9.90;;;2.00;;
76393;SDS011;65216;51.090;-115.352;2023-07-24T00:07:00;9.80;;;2.30;;
76393;SDS011;65216;51.090;-115.352;2023-07-24T00:09:30;10.90;;;2.00;;
76393;SDS011;65216;51.090;-115.352;2023-07-24T00:11:57;8.90;;;2.10;;
76393;SDS011;65216;51.090;-115.352;2023-07-24T00:14:27;7.00;;;1.90;;
76393;SDS011;65216;51.090;-115.352;2023-07-24T00:16:53;8.80;;;2.70;;
76393;SDS011;65216;51.090;-115.352;2023-07-24T00:19:20;7.10;;;2.20;;
76393;SDS011;65216;51.090;-115.352;2023-07-24T00:21:50;8.80;;;2.00;;
76393;SDS011;65216;51.090;-115.352;2023-07-24T00:24:20;10.30;;;2.40;;
76393;SDS011;65216;51.090;-115.352;2023-07-24T00:26:47;7.90;;;2.40;;
76393;SDS011;65216;51.090;-115.352;2023-07-24T00:29:18;10.40;;;2.40;;
76393;SDS011;65216;51.090;-115.352;2023-07-24T00:31:46;6.80;;;2.30;;
76393;SDS011;65216;51.090;-115.352;2023-07-24T00:34:13;14.00;;;2.50;;
76393;SDS011;65216;51.090;-115.352;2023-07-24T00:36:40;11.20;;;2.30;;
76393;SDS011;65216;51.090;-115.352;2023-07-24T00:39:10;9.90;;;2.80;;
76393;SDS011;65216;51.090;-115.352;2023-07-24T00:41:43;11.00;;;2.50;;
76393;SDS011;65216;51.090;-115.352;2023-07-24T00:44:10;6.70;;;2.70;;
76393;SDS011;65216;51.090;-115.352;2023-07-24T00:46:37;9.40;;;2.40;;
76393;SDS011;65216;51.090;-115.352;2023-07-24T00:49:05;9.40;;;2.40;;
76393;SDS011;65216;51.090;-115.352;2023-07-24T00:51:35;13.20;;;2.60;;
76393;SDS011;65216;51.090;-115.352;2023-07-24T00:54:03;8.70;;;2.40;;
76393;SDS011;65216;51.090;-115.352;2023-07-24T00:56:35;8.90;;;2.60;;
76393;SDS011;65216;51.090;-115.352;2023-07-24T00:59:04;11.10;;;2.60;;
76393;SDS011;65216;51.090;-115.352;2023-07-24T01:01:31;8.50;;;2.10;;
76393;SDS011;65216;51.090;-115.352;2023-07-24T01:04:01;5.10;;;2.30;;
76393;SDS011;65216;51.090;-115.352;2023-07-24T01:06:29;11.90;;;2.40;;
76393;SDS011;65216;51.090;-115.352;2023-07-24T01:08:56;7.90;;;2.40;;
76393;SDS011;65216;51.090;-115.352;2023-07-24T01:11:41;12.20;;;2.70;;
76393;SDS011;65216;51.090;-115.352;2023-07-24T01:14:26;8.10;;;2.00;;
76393;SDS011;65216;51.090;-115.352;2023-07-24T01:17:14;8.30;;;2.40;;
76393;SDS011;65216;51.090;-115.352;2023-07-24T01:19:48;6.50;;;2.10;;
76393;SDS011;65216;51.090;-115.352;2023-07-24T01:25:23;10.80;;;2.30;;
76393;SDS011;65216;51.090;-115.352;2023-07-24T01:27:54;5.40;;;1.80;;
76393;SDS011;65216;51.090;-115.352;2023-07-24T01:30:21;7.40;;;1.90;;
76393;SDS011;65216;51.090;-115.352;2023-07-24T01:32:49;8.40;;;1.80;;
76393;SDS011;65216;51.090;-115.352;2023-07-24T01:35:16;4.60;;;2.00;;
76393;SDS011;65216;51.090;-115.352;2023-07-24T01:37:46;5.50;;;2.10;;
76393;SDS011;65216;51.090;-115.352;2023-07-24T01:40:18;5.20;;;1.80;;
76393;SDS011;65216;51.090;-115.352;2023-07-24T01:42:49;4.80;;;1.90;;
76393;SDS011;65216;51.090;-115.352;2023-07-24T01:47:45;5.80;;;1.90;;
76393;SDS011;65216;51.090;-115.352;2023-07-24T01:50:12;7.70;;;1.90;;
76393;SDS011;65216;51.090;-115.352;2023-07-24T01:52:39;5.40;;;1.80;;
76393;SDS011;65216;51.090;-115.352;2023-07-24T01:55:12;5.20;;;2.00;;
76393;SDS011;65216;51.090;-115.352;2023-07-24T01:57:42;7.30;;;2.00;;
76393;SDS011;65216;51.090;-115.352;2023-07-24T02:00:09;4.70;;;1.70;;
76393;SDS011;65216;51.090;-115.352;2023-07-24T02:02:37;5.60;;;1.80;;
76393;SDS011;65216;51.090;-115.352;2023-07-24T02:05:10;6.00;;;1.90;;
76393;SDS011;65216;51.090;-115.352;2023-07-24T02:07:39;5.90;;;2.20;;
76393;SDS011;65216;51.090;-115.352;2023-07-24T02:10:07;3.60;;;1.80;;
76393;SDS011;65216;51.090;-115.352;2023-07-24T02:12:38;4.60;;;2.00;;
76393;SDS011;65216;51.090;-115.352;2023-07-24T02:15:07;4.10;;;2.00;;
76393;SDS011;65216;51.090;-115.352;2023-07-24T02:17:38;6.10;;;1.90;;
76393;SDS011;65216;51.090;-115.352;2023-07-24T02:20:06;4.80;;;1.90;;
76393;SDS011;65216;51.090;-115.352;2023-07-24T02:22:33;5.40;;;2.00;;
76393;SDS011;65216;51.090;-115.352;2023-07-24T02:25:01;7.40;;;2.40;;
76393;SDS011;65216;51.090;-115.352;2023-07-24T02:27:29;9.70;;;2.70;;
76393;SDS011;65216;51.090;-115.352;2023-07-24T02:30:00;7.60;;;2.70;;
76393;SDS011;65216;51.090;-115.352;2023-07-24T02:32:31;8.50;;;2.70;;
76393;SDS011;65216;51.090;-115.352;2023-07-24T02:34:58;6.40;;;2.50;;
76393;SDS011;65216;51.090;-115.352;2023-07-24T02:37:25;5.90;;;2.80;;
76393;SDS011;65216;51.090;-115.352;2023-07-24T02:39:52;6.10;;;2.20;;
76393;SDS011;65216;51.090;-115.352;2023-07-24T02:42:19;8.00;;;2.40;;
76393;SDS011;65216;51.090;-115.352;2023-07-24T02:44:46;6.20;;;2.40;;
76393;SDS011;65216;51.090;-115.352;2023-07-24T02:47:13;5.10;;;2.50;;
76393;SDS011;65216;51.090;-115.352;2023-07-24T02:49:46;8.50;;;2.60;;
76393;SDS011;65216;51.090;-115.352;2023-07-24T02:52:13;7.40;;;2.60;;
76393;SDS011;65216;51.090;-115.352;2023-07-24T02:54:39;6.30;;;2.60;;
76393;SDS011;65216;51.090;-115.352;2023-07-24T02:57:06;5.60;;;2.90;;
76393;SDS011;65216;51.090;-115.352;2023-07-24T02:59:33;6.30;;;3.00;;
76393;SDS011;65216;51.090;-115.352;2023-07-24T03:02:01;5.10;;;2.80;;
76393;SDS011;65216;51.090;-115.352;2023-07-24T03:04:28;6.30;;;2.80;;
76393;SDS011;65216;51.090;-115.352;2023-07-24T03:06:55;5.10;;;2.70;;
76393;SDS011;65216;51.090;-115.352;2023-07-24T03:09:22;7.00;;;3.20;;
76393;SDS011;65216;51.090;-115.352;2023-07-24T03:11:49;6.70;;;2.70;;
76393;SDS011;65216;51.090;-115.352;2023-07-24T03:14:18;6.00;;;2.90;;
76393;SDS011;65216;51.090;-115.352;2023-07-24T03:16:46;5.30;;;3.00;;
76393;SDS011;65216;51.090;-115.352;2023-07-24T03:19:15;5.50;;;3.10;;
76393;SDS011;65216;51.090;-115.352;2023-07-24T03:21:48;6.60;;;2.80;;
76393;SDS011;65216;51.090;-115.352;2023-07-24T03:24:15;6.20;;;3.50;;
76393;SDS011;65216;51.090;-115.352;2023-07-24T03:26:43;6.10;;;3.20;;
76393;SDS011;65216;51.090;-115.352;2023-07-24T03:29:10;5.20;;;3.20;;
76393;SDS011;65216;51.090;-115.352;2023-07-24T03:31:37;5.80;;;3.00;;
76393;SDS011;65216;51.090;-115.352;2023-07-24T03:34:03;4.90;;;2.80;;
76393;SDS011;65216;51.090;-115.352;2023-07-24T03:36:30;5.80;;;3.30;;
76393;SDS011;65216;51.090;-115.352;2023-07-24T03:38:57;6.90;;;3.30;;
76393;SDS011;65216;51.090;-115.352;2023-07-24T03:41:24;6.80;;;3.10;;
76393;SDS011;65216;51.090;-115.352;2023-07-24T03:43:54;5.70;;;3.10;;
76393;SDS011;65216;51.090;-115.352;2023-07-24T03:46:25;5.70;;;3.40;;
76393;SDS011;65216;51.090;-115.352;2023-07-24T03:48:52;5.10;;;3.10;;
76393;SDS011;65216;51.090;-115.352;2023-07-24T03:51:19;5.90;;;3.20;;
76393;SDS011;65216;51.090;-115.352;2023-07-24T03:53:46;6.10;;;3.20;;
76393;SDS011;65216;51.090;-115.352;2023-07-24T03:56:13;5.90;;;3.20;;
76393;SDS011;65216;51.090;-115.352;2023-07-24T03:58:40;6.60;;;3.20;;
76393;SDS011;65216;51.090;-115.352;2023-07-24T04:01:10;6.60;;;3.40;;
76393;SDS011;65216;51.090;-115.352;2023-07-24T04:03:37;6.70;;;3.30;;
76393;SDS011;65216;51.090;-115.352;2023-07-24T04:06:07;5.90;;;3.20;;
76393;SDS011;65216;51.090;-115.352;2023-07-24T04:08:33;5.80;;;3.30;;
76393;SDS011;65216;51.090;-115.352;2023-07-24T04:11:09;6.70;;;3.50;;
76393;SDS011;65216;51.090;-115.352;2023-07-24T04:13:36;6.20;;;3.50;;
76393;SDS011;65216;51.090;-115.352;2023-07-24T04:16:03;6.90;;;3.10;;
76393;SDS011;65216;51.090;-115.352;2023-07-24T04:18:30;5.40;;;3.10;;
76393;SDS011;65216;51.090;-115.352;2023-07-24T04:20:57;6.40;;;3.30;;
76393;SDS011;65216;51.090;-115.352;2023-07-24T04:23:24;7.60;;;3.40;;
76393;SDS011;65216;51.090;-115.352;2023-07-24T04:25:51;5.20;;;3.00;;
76393;SDS011;65216;51.090;-115.352;2023-07-24T04:28:17;6.00;;;3.50;;
76393;SDS011;65216;51.090;-115.352;2023-07-24T04:30:44;6.40;;;3.30;;
76393;SDS011;65216;51.090;-115.352;2023-07-24T04:33:11;5.60;;;3.10;;
76393;SDS011;65216;51.090;-115.352;2023-07-24T04:35:38;6.00;;;3.30;;
76393;SDS011;65216;51.090;-115.352;2023-07-24T04:38:05;5.90;;;3.30;;
76393;SDS011;65216;51.090;-115.352;2023-07-24T04:40:33;4.80;;;2.90;;
76393;SDS011;65216;51.090;-115.352;2023-07-24T04:43:02;6.20;;;3.30;;
76393;SDS011;65216;51.090;-115.352;2023-07-24T04:45:29;5.30;;;3.20;;
76393;SDS011;65216;51.090;-115.352;2023-07-24T04:47:56;5.70;;;2.90;;
76393;SDS011;65216;51.090;-115.352;2023-07-24T04:50:23;5.80;;;3.40;;
76393;SDS011;65216;51.090;-115.352;2023-07-24T04:52:50;5.30;;;3.20;;
76393;SDS011;65216;51.090;-115.352;2023-07-24T04:55:17;5.50;;;2.90;;
76393;SDS011;65216;51.090;-115.352;2023-07-24T04:57:44;6.10;;;3.20;;
76393;SDS011;65216;51.090;-115.352;2023-07-24T05:00:11;5.80;;;3.10;;
76393;SDS011;65216;51.090;-115.352;2023-07-24T05:02:39;6.50;;;3.50;;
76393;SDS011;65216;51.090;-115.352;2023-07-24T05:05:06;5.50;;;3.20;;
76393;SDS011;65216;51.090;-115.352;2023-07-24T05:07:33;5.30;;;3.00;;
76393;SDS011;65216;51.090;-115.352;2023-07-24T05:10:01;5.20;;;3.30;;
76393;SDS011;65216;51.090;-115.352;2023-07-24T05:12:28;5.20;;;3.30;;
76393;SDS011;65216;51.090;-115.352;2023-07-24T05:14:55;5.20;;;3.10;;
76393;SDS011;65216;51.090;-115.352;2023-07-24T05:17:24;8.00;;;3.40;;
76393;SDS011;65216;51.090;-115.352;2023-07-24T05:19:52;6.60;;;3.00;;
76393;SDS011;65216;51.090;-115.352;2023-07-24T05:22:18;6.40;;;3.00;;
76393;SDS011;65216;51.090;-115.352;2023-07-24T05:24:45;7.10;;;3.40;;
76393;SDS011;65216;51.090;-115.352;2023-07-24T05:27:12;5.10;;;2.90;;
76393;SDS011;65216;51.090;-115.352;2023-07-24T05:29:41;5.70;;;3.40;;
76393;SDS011;65216;51.090;-115.352;2023-07-24T05:32:12;7.20;;;3.40;;
76393;SDS011;65216;51.090;-115.352;2023-07-24T05:34:38;6.40;;;3.30;;
76393;SDS011;65216;51.090;-115.352;2023-07-24T05:37:05;7.30;;;3.80;;
76393;SDS011;65216;51.090;-115.352;2023-07-24T05:39:35;5.80;;;3.20;;
76393;SDS011;65216;51.090;-115.352;2023-07-24T05:42:02;6.00;;;2.90;;
76393;SDS011;65216;51.090;-115.352;2023-07-24T05:44:29;5.70;;;2.90;;
76393;SDS011;65216;51.090;-115.352;2023-07-24T05:47:01;4.60;;;3.00;;
76393;SDS011;65216;51.090;-115.352;2023-07-24T05:49:31;6.80;;;3.10;;
76393;SDS011;65216;51.090;-115.352;2023-07-24T05:51:58;5.30;;;2.90;;
76393;SDS011;65216;51.090;-115.352;2023-07-24T05:54:25;5.20;;;2.90;;
76393;SDS011;65216;51.090;-115.352;2023-07-24T05:56:52;5.70;;;3.00;;
76393;SDS011;65216;51.090;-115.352;2023-07-24T05:59:19;5.30;;;3.00;;
76393;SDS011;65216;51.090;-115.352;2023-07-24T06:01:46;6.60;;;2.60;;
76393;SDS011;65216;51.090;-115.352;2023-07-24T06:04:13;5.20;;;3.00;;
76393;SDS011;65216;51.090;-115.352;2023-07-24T06:06:40;5.20;;;3.20;;
76393;SDS011;65216;51.090;-115.352;2023-07-24T06:09:06;4.90;;;2.90;;
76393;SDS011;65216;51.090;-115.352;2023-07-24T06:11:33;5.50;;;2.70;;
76393;SDS011;65216;51.090;-115.352;2023-07-24T06:14:00;5.40;;;3.00;;
76393;SDS011;65216;51.090;-115.352;2023-07-24T06:16:27;5.10;;;2.90;;
76393;SDS011;65216;51.090;-115.352;2023-07-24T06:18:54;4.80;;;2.70;;
76393;SDS011;65216;51.090;-115.352;2023-07-24T06:21:24;4.70;;;2.40;;
76393;SDS011;65216;51.090;-115.352;2023-07-24T06:23:51;4.50;;;2.70;;
76393;SDS011;65216;51.090;-115.352;2023-07-24T06:26:18;4.70;;;2.70;;
76393;SDS011;65216;51.090;-115.352;2023-07-24T06:28:45;4.60;;;2.60;;
76393;SDS011;65216;51.090;-115.352;2023-07-24T06:31:12;4.60;;;2.60;;
76393;SDS011;65216;51.090;-115.352;2023-07-24T06:33:39;4.50;;;2.50;;
76393;SDS011;65216;51.090;-115.352;2023-07-24T06:36:10;4.90;;;2.90;;
76393;SDS011;65216;51.090;-115.352;2023-07-24T06:38:38;4.50;;;2.70;;
76393;SDS011;65216;51.090;-115.352;2023-07-24T06:41:05;4.70;;;2.90;;
76393;SDS011;65216;51.090;-115.352;2023-07-24T06:43:33;5.70;;;3.50;;
76393;SDS011;65216;51.090;-115.352;2023-07-24T06:45:59;6.50;;;3.40;;
76393;SDS011;65216;51.090;-115.352;2023-07-24T06:48:29;6.80;;;3.70;;
76393;SDS011;65216;51.090;-115.352;2023-07-24T06:50:56;6.00;;;3.60;;
76393;SDS011;65216;51.090;-115.352;2023-07-24T06:53:23;6.10;;;3.80;;
76393;SDS011;65216;51.090;-115.352;2023-07-24T06:55:49;6.30;;;4.00;;
76393;SDS011;65216;51.090;-115.352;2023-07-24T06:58:19;6.30;;;3.40;;
76393;SDS011;65216;51.090;-115.352;2023-07-24T07:00:46;5.70;;;3.70;;
76393;SDS011;65216;51.090;-115.352;2023-07-24T07:03:13;6.60;;;3.90;;
76393;SDS011;65216;51.090;-115.352;2023-07-24T07:05:42;6.50;;;4.10;;
76393;SDS011;65216;51.090;-115.352;2023-07-24T07:08:09;7.50;;;4.70;;
76393;SDS011;65216;51.090;-115.352;2023-07-24T07:10:36;7.00;;;4.40;;
76393;SDS011;65216;51.090;-115.352;2023-07-24T07:13:03;6.90;;;4.10;;
76393;SDS011;65216;51.090;-115.352;2023-07-24T07:15:33;7.00;;;4.40;;
76393;SDS011;65216;51.090;-115.352;2023-07-24T07:18:05;6.70;;;4.30;;
76393;SDS011;65216;51.090;-115.352;2023-07-24T07:20:32;6.40;;;4.40;;
76393;SDS011;65216;51.090;-115.352;2023-07-24T07:22:59;6.20;;;3.90;;
76393;SDS011;65216;51.090;-115.352;2023-07-24T07:25:26;6.10;;;4.10;;
76393;SDS011;65216;51.090;-115.352;2023-07-24T07:27:56;7.90;;;4.50;;
76393;SDS011;65216;51.090;-115.352;2023-07-24T07:30:22;6.50;;;3.90;;
76393;SDS011;65216;51.090;-115.352;2023-07-24T07:32:49;7.20;;;4.40;;
76393;SDS011;65216;51.090;-115.352;2023-07-24T07:35:16;7.30;;;4.70;;
76393;SDS011;65216;51.090;-115.352;2023-07-24T07:37:43;6.40;;;4.50;;
76393;SDS011;65216;51.090;-115.352;2023-07-24T07:40:11;7.40;;;4.50;;
76393;SDS011;65216;51.090;-115.352;2023-07-24T07:42:38;7.30;;;4.60;;
76393;SDS011;65216;51.090;-115.352;2023-07-24T07:45:05;7.10;;;4.10;;
76393;SDS011;65216;51.090;-115.352;2023-07-24T07:47:33;6.50;;;4.30;;
76393;SDS011;65216;51.090;-115.352;2023-07-24T07:50:00;7.30;;;4.30;;
76393;SDS011;65216;51.090;-115.352;2023-07-24T07:52:26;7.40;;;4.30;;
76393;SDS011;65216;51.090;-115.352;2023-07-24T07:54:54;6.40;;;4.60;;
76393;SDS011;65216;51.090;-115.352;2023-07-24T07:57:20;7.10;;;4.40;;
76393;SDS011;65216;51.090;-115.352;2023-07-24T07:59:47;7.20;;;4.40;;
76393;SDS011;65216;51.090;-115.352;2023-07-24T08:02:14;7.10;;;4.40;;
76393;SDS011;65216;51.090;-115.352;2023-07-24T08:04:41;6.40;;;4.60;;
76393;SDS011;65216;51.090;-115.352;2023-07-24T08:07:08;6.00;;;4.10;;
76393;SDS011;65216;51.090;-115.352;2023-07-24T08:09:35;7.20;;;4.50;;
76393;SDS011;65216;51.090;-115.352;2023-07-24T08:12:04;7.40;;;4.10;;
76393;SDS011;65216;51.090;-115.352;2023-07-24T08:14:31;7.40;;;4.40;;
76393;SDS011;65216;51.090;-115.352;2023-07-24T08:16:58;6.70;;;4.10;;
76393;SDS011;65216;51.090;-115.352;2023-07-24T08:19:28;6.70;;;4.60;;
76393;SDS011;65216;51.090;-115.352;2023-07-24T08:21:56;5.70;;;3.80;;
76393;SDS011;65216;51.090;-115.352;2023-07-24T08:24:23;7.40;;;4.80;;
76393;SDS011;65216;51.090;-115.352;2023-07-24T08:26:50;6.70;;;4.20;;
76393;SDS011;65216;51.090;-115.352;2023-07-24T08:29:17;7.70;;;4.40;;
76393;SDS011;65216;51.090;-115.352;2023-07-24T08:31:47;6.20;;;4.30;;
76393;SDS011;65216;51.090;-115.352;2023-07-24T08:34:13;5.40;;;3.70;;
76393;SDS011;65216;51.090;-115.352;2023-07-24T08:36:40;6.00;;;4.10;;
76393;SDS011;65216;51.090;-115.352;2023-07-24T08:39:07;6.50;;;4.30;;
76393;SDS011;65216;51.090;-115.352;2023-07-24T08:41:34;6.70;;;4.20;;
76393;SDS011;65216;51.090;-115.352;2023-07-24T08:44:07;5.80;;;3.70;;
76393;SDS011;65216;51.090;-115.352;2023-07-24T08:46:39;6.90;;;4.20;;
76393;SDS011;65216;51.090;-115.352;2023-07-24T08:49:16;6.80;;;4.30;;
76393;SDS011;65216;51.090;-115.352;2023-07-24T08:51:47;5.90;;;3.80;;
76393;SDS011;65216;51.090;-115.352;2023-07-24T08:54:18;5.80;;;4.00;;
76393;SDS011;65216;51.090;-115.352;2023-07-24T08:56:46;6.10;;;4.10;;
76393;SDS011;65216;51.090;-115.352;2023-07-24T08:59:16;5.70;;;3.90;;
76393;SDS011;65216;51.090;-115.352;2023-07-24T09:01:43;6.00;;;3.80;;
76393;SDS011;65216;51.090;-115.352;2023-07-24T09:04:10;6.60;;;4.20;;
76393;SDS011;65216;51.090;-115.352;2023-07-24T09:06:37;6.00;;;3.80;;
76393;SDS011;65216;51.090;-115.352;2023-07-24T09:09:13;6.40;;;3.90;;
76393;SDS011;65216;51.090;-115.352;2023-07-24T09:11:49;6.20;;;3.70;;
76393;SDS011;65216;51.090;-115.352;2023-07-24T09:14:27;6.30;;;3.80;;
76393;SDS011;65216;51.090;-115.352;2023-07-24T09:17:09;5.50;;;3.60;;
76393;SDS011;65216;51.090;-115.352;2023-07-24T09:19:37;5.70;;;3.60;;
76393;SDS011;65216;51.090;-115.352;2023-07-24T09:22:23;5.60;;;3.50;;
76393;SDS011;65216;51.090;-115.352;2023-07-24T09:24:54;5.70;;;3.60;;
76393;SDS011;65216;51.090;-115.352;2023-07-24T09:27:28;5.30;;;3.70;;
76393;SDS011;65216;51.090;-115.352;2023-07-24T09:29:56;5.70;;;3.90;;
76393;SDS011;65216;51.090;-115.352;2023-07-24T09:32:24;5.70;;;3.90;;
76393;SDS011;65216;51.090;-115.352;2023-07-24T09:34:53;5.50;;;3.90;;
76393;SDS011;65216;51.090;-115.352;2023-07-24T09:37:28;6.70;;;3.80;;
76393;SDS011;65216;51.090;-115.352;2023-07-24T09:40:05;6.70;;;3.70;;
76393;SDS011;65216;51.090;-115.352;2023-07-24T09:42:37;6.30;;;3.90;;
76393;SDS011;65216;51.090;-115.352;2023-07-24T09:45:06;5.40;;;3.60;;
76393;SDS011;65216;51.090;-115.352;2023-07-24T09:47:34;5.20;;;3.70;;
76393;SDS011;65216;51.090;-115.352;2023-07-24T09:50:04;5.90;;;3.60;;
76393;SDS011;65216;51.090;-115.352;2023-07-24T09:52:32;5.20;;;3.40;;
76393;SDS011;65216;51.090;-115.352;2023-07-24T09:55:14;5.90;;;3.50;;
76393;SDS011;65216;51.090;-115.352;2023-07-24T09:57:48;5.60;;;3.70;;
76393;SDS011;65216;51.090;-115.352;2023-07-24T10:00:20;5.00;;;3.40;;
76393;SDS011;65216;51.090;-115.352;2023-07-24T10:02:50;5.30;;;3.40;;
76393;SDS011;65216;51.090;-115.352;2023-07-24T10:05:20;4.90;;;3.30;;
76393;SDS011;65216;51.090;-115.352;2023-07-24T10:07:48;6.00;;;3.90;;
76393;SDS011;65216;51.090;-115.352;2023-07-24T10:10:16;5.50;;;3.50;;
76393;SDS011;65216;51.090;-115.352;2023-07-24T10:12:44;5.10;;;3.40;;
76393;SDS011;65216;51.090;-115.352;2023-07-24T10:15:11;5.40;;;3.90;;
76393;SDS011;65216;51.090;-115.352;2023-07-24T10:17:40;5.40;;;3.40;;
76393;SDS011;65216;51.090;-115.352;2023-07-24T10:20:15;5.90;;;3.70;;
76393;SDS011;65216;51.090;-115.352;2023-07-24T10:22:44;5.20;;;3.60;;
76393;SDS011;65216;51.090;-115.352;2023-07-24T10:25:11;5.20;;;3.80;;
76393;SDS011;65216;51.090;-115.352;2023-07-24T10:27:45;5.80;;;3.80;;
76393;SDS011;65216;51.090;-115.352;2023-07-24T10:30:15;5.40;;;3.50;;
76393;SDS011;65216;51.090;-115.352;2023-07-24T10:32:48;5.20;;;3.40;;
76393;SDS011;65216;51.090;-115.352;2023-07-24T10:35:16;5.50;;;3.50;;
76393;SDS011;65216;51.090;-115.352;2023-07-24T10:37:43;5.60;;;3.40;;
76393;SDS011;65216;51.090;-115.352;2023-07-24T10:40:20;5.10;;;3.40;;
76393;SDS011;65216;51.090;-115.352;2023-07-24T10:43:01;5.50;;;3.80;;
76393;SDS011;65216;51.090;-115.352;2023-07-24T10:45:51;5.70;;;3.80;;
76393;SDS011;65216;51.090;-115.352;2023-07-24T10:48:24;5.40;;;3.40;;
76393;SDS011;65216;51.090;-115.352;2023-07-24T10:50:52;5.60;;;3.80;;
76393;SDS011;65216;51.090;-115.352;2023-07-24T10:53:20;5.20;;;3.50;;
76393;SDS011;65216;51.090;-115.352;2023-07-24T10:55:48;5.10;;;3.60;;
76393;SDS011;65216;51.090;-115.352;2023-07-24T10:58:17;5.40;;;3.50;;
76393;SDS011;65216;51.090;-115.352;2023-07-24T11:00:50;5.40;;;3.40;;
76393;SDS011;65216;51.090;-115.352;2023-07-24T11:03:17;5.00;;;3.50;;
76393;SDS011;65216;51.090;-115.352;2023-07-24T11:05:47;5.20;;;3.60;;
76393;SDS011;65216;51.090;-115.352;2023-07-24T11:08:20;5.20;;;3.50;;
76393;SDS011;65216;51.090;-115.352;2023-07-24T11:10:52;5.00;;;3.20;;
76393;SDS011;65216;51.090;-115.352;2023-07-24T11:13:25;5.40;;;3.60;;
76393;SDS011;65216;51.090;-115.352;2023-07-24T11:15:53;4.80;;;3.30;;
76393;SDS011;65216;51.090;-115.352;2023-07-24T11:18:22;5.10;;;3.60;;
76393;SDS011;65216;51.090;-115.352;2023-07-24T11:20:58;4.90;;;3.20;;
76393;SDS011;65216;51.090;-115.352;2023-07-24T11:23:27;5.50;;;3.70;;
76393;SDS011;65216;51.090;-115.352;2023-07-24T11:25:57;5.20;;;3.40;;
76393;SDS011;65216;51.090;-115.352;2023-07-24T11:28:27;5.30;;;3.40;;
76393;SDS011;65216;51.090;-115.352;2023-07-24T11:31:01;5.00;;;3.40;;
76393;SDS011;65216;51.090;-115.352;2023-07-24T11:33:29;4.80;;;3.50;;
76393;SDS011;65216;51.090;-115.352;2023-07-24T11:35:56;4.80;;;3.40;;
76393;SDS011;65216;51.090;-115.352;2023-07-24T11:38:23;4.90;;;3.40;;
76393;SDS011;65216;51.090;-115.352;2023-07-24T11:40:50;4.90;;;3.20;;
76393;SDS011;65216;51.090;-115.352;2023-07-24T11:43:24;5.00;;;3.30;;
76393;SDS011;65216;51.090;-115.352;2023-07-24T11:45:54;4.70;;;2.90;;
76393;SDS011;65216;51.090;-115.352;2023-07-24T11:48:24;4.50;;;2.80;;
76393;SDS011;65216;51.090;-115.352;2023-07-24T11:50:55;5.40;;;3.20;;
76393;SDS011;65216;51.090;-115.352;2023-07-24T11:53:28;5.10;;;3.20;;
76393;SDS011;65216;51.090;-115.352;2023-07-24T11:55:59;5.30;;;3.50;;
76393;SDS011;65216;51.090;-115.352;2023-07-24T11:58:29;4.70;;;3.20;;
76393;SDS011;65216;51.090;-115.352;2023-07-24T12:00:56;5.50;;;3.10;;
76393;SDS011;65216;51.090;-115.352;2023-07-24T12:03:28;4.70;;;3.00;;
76393;SDS011;65216;51.090;-115.352;2023-07-24T12:05:55;4.50;;;3.10;;
76393;SDS011;65216;51.090;-115.352;2023-07-24T12:08:35;4.70;;;3.10;;
76393;SDS011;65216;51.090;-115.352;2023-07-24T12:11:02;5.60;;;3.40;;
76393;SDS011;65216;51.090;-115.352;2023-07-24T12:13:29;5.00;;;3.10;;
76393;SDS011;65216;51.090;-115.352;2023-07-24T12:15:58;5.10;;;3.20;;
76393;SDS011;65216;51.090;-115.352;2023-07-24T12:18:28;4.50;;;3.30;;
76393;SDS011;65216;51.090;-115.352;2023-07-24T12:20:55;4.70;;;3.00;;
76393;SDS011;65216;51.090;-115.352;2023-07-24T12:23:24;4.50;;;3.00;;
76393;SDS011;65216;51.090;-115.352;2023-07-24T12:25:51;4.90;;;3.00;;
76393;SDS011;65216;51.090;-115.352;2023-07-24T12:28:18;4.70;;;3.20;;
76393;SDS011;65216;51.090;-115.352;2023-07-24T12:30:45;4.30;;;2.90;;
76393;SDS011;65216;51.090;-115.352;2023-07-24T12:33:14;5.00;;;3.10;;
76393;SDS011;65216;51.090;-115.352;2023-07-24T12:35:42;4.70;;;2.80;;
76393;SDS011;65216;51.090;-115.352;2023-07-24T12:38:09;5.10;;;3.20;;
76393;SDS011;65216;51.090;-115.352;2023-07-24T12:40:36;4.80;;;3.00;;
76393;SDS011;65216;51.090;-115.352;2023-07-24T12:43:02;4.30;;;2.90;;
76393;SDS011;65216;51.090;-115.352;2023-07-24T12:45:31;5.50;;;2.90;;
76393;SDS011;65216;51.090;-115.352;2023-07-24T12:47:58;4.20;;;2.80;;
76393;SDS011;65216;51.090;-115.352;2023-07-24T12:50:25;4.10;;;2.80;;
76393;SDS011;65216;51.090;-115.352;2023-07-24T12:52:52;5.10;;;3.00;;
76393;SDS011;65216;51.090;-115.352;2023-07-24T12:55:22;4.60;;;3.00;;
76393;SDS011;65216;51.090;-115.352;2023-07-24T12:57:49;4.50;;;2.90;;
76393;SDS011;65216;51.090;-115.352;2023-07-24T13:00:16;5.70;;;2.90;;
76393;SDS011;65216;51.090;-115.352;2023-07-24T13:02:43;4.30;;;2.70;;
76393;SDS011;65216;51.090;-115.352;2023-07-24T13:05:10;5.90;;;2.90;;
76393;SDS011;65216;51.090;-115.352;2023-07-24T13:07:37;5.60;;;3.10;;
76393;SDS011;65216;51.090;-115.352;2023-07-24T13:10:04;4.40;;;2.60;;
76393;SDS011;65216;51.090;-115.352;2023-07-24T13:12:38;4.90;;;3.30;;
76393;SDS011;65216;51.090;-115.352;2023-07-24T13:15:05;5.70;;;3.00;;
76393;SDS011;65216;51.090;-115.352;2023-07-24T13:17:35;5.00;;;3.00;;
76393;SDS011;65216;51.090;-115.352;2023-07-24T13:20:05;4.90;;;3.10;;
76393;SDS011;65216;51.090;-115.352;2023-07-24T13:22:32;4.70;;;2.80;;
76393;SDS011;65216;51.090;-115.352;2023-07-24T13:24:59;6.10;;;3.00;;
76393;SDS011;65216;51.090;-115.352;2023-07-24T13:27:26;5.20;;;3.00;;
76393;SDS011;65216;51.090;-115.352;2023-07-24T13:29:53;5.20;;;3.40;;
76393;SDS011;65216;51.090;-115.352;2023-07-24T13:32:20;5.50;;;3.30;;
76393;SDS011;65216;51.090;-115.352;2023-07-24T13:35:09;6.00;;;3.50;;
76393;SDS011;65216;51.090;-115.352;2023-07-24T13:37:35;5.30;;;3.50;;
76393;SDS011;65216;51.090;-115.352;2023-07-24T13:40:03;7.10;;;3.30;;
76393;SDS011;65216;51.090;-115.352;2023-07-24T13:42:33;5.50;;;3.30;;
76393;SDS011;65216;51.090;-115.352;2023-07-24T13:45:03;5.50;;;3.40;;
76393;SDS011;65216;51.090;-115.352;2023-07-24T13:47:33;6.30;;;3.50;;
76393;SDS011;65216;51.090;-115.352;2023-07-24T13:50:00;7.60;;;3.60;;
76393;SDS011;65216;51.090;-115.352;2023-07-24T13:52:30;6.20;;;3.60;;
76393;SDS011;65216;51.090;-115.352;2023-07-24T13:54:57;6.80;;;3.30;;
76393;SDS011;65216;51.090;-115.352;2023-07-24T13:57:24;6.00;;;3.40;;
76393;SDS011;65216;51.090;-115.352;2023-07-24T13:59:51;5.80;;;3.20;;
76393;SDS011;65216;51.090;-115.352;2023-07-24T14:02:17;5.90;;;3.60;;
76393;SDS011;65216;51.090;-115.352;2023-07-24T14:04:45;7.10;;;4.20;;
76393;SDS011;65216;51.090;-115.352;2023-07-24T14:07:11;6.60;;;3.60;;
76393;SDS011;65216;51.090;-115.352;2023-07-24T14:09:39;5.90;;;3.70;;
76393;SDS011;65216;51.090;-115.352;2023-07-24T14:12:06;5.70;;;3.50;;
76393;SDS011;65216;51.090;-115.352;2023-07-24T14:14:36;6.50;;;3.70;;
76393;SDS011;65216;51.090;-115.352;2023-07-24T14:17:03;5.60;;;3.40;;
76393;SDS011;65216;51.090;-115.352;2023-07-24T14:19:30;7.30;;;4.00;;
76393;SDS011;65216;51.090;-115.352;2023-07-24T14:21:57;6.00;;;3.80;;
76393;SDS011;65216;51.090;-115.352;2023-07-24T14:24:24;6.00;;;3.70;;